Terminal Aerodrome Forecast
Issued by NWS

Home | Current Version | Previous Version | Text Only | Print | Product List | Glossary On
Versions: 1 2 3 4 5 6 7 8 9 10 11 12 13 14 15 16 17 18 19 20 21
000
FTUS41 KBOX 282333
TAFBAF
TAF
KBAF 282333Z 2900/2924 18007KT P6SM SCT140
     FM290600 19005KT P6SM BKN140
     FM290800 21004KT P6SM VCSH SCT060 BKN090
     FM291200 27004KT P6SM BKN130
     FM291500 29006KT P6SM SCT250
     FM292300 33006KT P6SM FEW250=

USA.gov is the U.S. government's official web portal to all federal, state and local government web resources and services.